createdAt,value
2018-04-18T00:01:51.885Z,2.10
2018-04-18T00:04:25.557Z,1.67
2018-04-18T00:06:55.504Z,1.60
2018-04-18T00:09:25.618Z,1.70
2018-04-18T00:11:56.602Z,2.17
2018-04-18T00:14:26.669Z,1.97
2018-04-18T00:16:57.915Z,1.90
2018-04-18T00:19:27.491Z,2.17
2018-04-18T00:21:57.055Z,2.10
2018-04-18T00:24:26.654Z,2.07
2018-04-18T00:26:56.509Z,2.03
2018-04-18T00:29:26.628Z,2.03
2018-04-18T00:31:56.279Z,2.33
2018-04-18T00:34:25.845Z,2.00
2018-04-18T00:36:55.456Z,1.80
2018-04-18T00:39:25.028Z,2.00
2018-04-18T00:41:54.848Z,1.93
2018-04-18T00:44:24.497Z,2.30
2018-04-18T00:46:54.430Z,2.03
2018-04-18T00:49:24.789Z,1.93
2018-04-18T00:51:54.388Z,1.90
2018-04-18T00:54:23.971Z,2.23
2018-04-18T00:56:53.549Z,2.17
2018-04-18T00:59:23.104Z,2.10
2018-04-18T01:01:52.711Z,2.00
2018-04-18T01:04:22.439Z,2.77
2018-04-18T01:06:52.021Z,2.33
2018-04-18T01:09:21.989Z,2.50
2018-04-18T01:11:51.590Z,2.20
2018-04-18T01:14:21.228Z,2.53
2018-04-18T01:16:51.077Z,2.53
2018-04-18T01:19:20.680Z,2.00
2018-04-18T01:21:50.660Z,1.80
2018-04-18T01:24:20.469Z,2.23
2018-04-18T01:26:50.129Z,2.23
2018-04-18T01:29:19.715Z,2.23
2018-04-18T01:31:49.557Z,2.10
2018-04-18T01:34:19.451Z,2.37
2018-04-18T01:36:49.239Z,2.50
2018-04-18T01:39:18.820Z,2.20
2018-04-18T01:41:48.429Z,2.23
2018-04-18T01:44:18.041Z,2.27
2018-04-18T01:46:48.043Z,1.97
2018-04-18T01:49:31.171Z,2.37
2018-04-18T01:52:00.921Z,2.30
2018-04-18T01:54:30.526Z,2.10
2018-04-18T01:57:06.165Z,2.07
2018-04-18T01:59:35.711Z,2.30
2018-04-18T02:02:05.863Z,2.30
2018-04-18T02:04:35.458Z,2.40
2018-04-18T02:07:05.315Z,2.30
2018-04-18T02:09:34.869Z,2.37
2018-04-18T02:12:04.470Z,2.63
2018-04-18T02:14:34.206Z,2.13
2018-04-18T02:17:04.993Z,2.50
2018-04-18T02:19:41.265Z,2.60
2018-04-18T02:22:11.000Z,2.40
2018-04-18T02:24:40.595Z,2.33
2018-04-18T02:27:10.177Z,2.00
2018-04-18T02:29:39.779Z,2.10
2018-04-18T02:32:09.440Z,2.43
2018-04-18T02:34:39.051Z,2.30
2018-04-18T02:37:08.698Z,2.40
2018-04-18T02:39:38.315Z,2.60
2018-04-18T02:42:08.460Z,2.70
2018-04-18T02:44:38.331Z,2.50
2018-04-18T02:47:07.979Z,2.43
2018-04-18T02:49:37.848Z,2.00
2018-04-18T02:52:07.889Z,2.73
2018-04-18T02:54:37.718Z,2.50
2018-04-18T02:57:14.089Z,2.60
2018-04-18T02:59:43.734Z,2.40
2018-04-18T03:02:14.457Z,2.37
2018-04-18T03:04:44.137Z,2.50
2018-04-18T03:07:27.153Z,2.90
2018-04-18T03:09:56.748Z,3.73
2018-04-18T03:12:26.321Z,3.40
2018-04-18T03:14:58.973Z,3.87
2018-04-18T03:17:29.664Z,4.07
2018-04-18T03:19:59.298Z,3.63
2018-04-18T03:22:40.897Z,3.20
2018-04-18T03:25:10.461Z,2.80
2018-04-18T03:27:40.010Z,3.30
2018-04-18T03:30:09.572Z,3.03
2018-04-18T03:32:39.114Z,2.90
2018-04-18T03:35:10.141Z,3.50
2018-04-18T03:37:39.706Z,2.83
2018-04-18T03:40:09.281Z,3.50
2018-04-18T03:42:38.905Z,3.80
2018-04-18T03:45:08.475Z,3.30
2018-04-18T03:47:38.116Z,4.73
2018-04-18T03:50:08.588Z,4.47
2018-04-18T03:52:38.161Z,4.40
2018-04-18T03:55:07.702Z,3.80
2018-04-18T03:57:37.249Z,4.80
2018-04-18T04:00:06.844Z,5.37
2018-04-18T04:02:36.438Z,4.80
2018-04-18T04:05:06.275Z,5.03
2018-04-18T04:07:36.079Z,4.40
2018-04-18T04:10:05.683Z,4.50
2018-04-18T04:12:38.612Z,5.03
2018-04-18T04:15:08.229Z,4.43
2018-04-18T04:17:43.970Z,4.60
2018-04-18T04:20:19.577Z,4.33
2018-04-18T04:23:00.974Z,4.60
2018-04-18T04:25:30.594Z,5.13
2018-04-18T04:28:00.187Z,4.80
2018-04-18T04:30:29.797Z,5.60
2018-04-18T04:32:59.429Z,7.00
2018-04-18T04:35:28.999Z,6.27
2018-04-18T04:37:58.631Z,5.53
2018-04-18T04:40:36.612Z,5.00
2018-04-18T04:43:06.183Z,4.70
2018-04-18T04:45:36.116Z,5.37
2018-04-18T04:48:05.682Z,6.93
2018-04-18T04:50:35.296Z,5.07
2018-04-18T04:53:04.850Z,5.27
2018-04-18T04:55:34.400Z,3.70
2018-04-18T04:58:04.072Z,6.50
2018-04-18T05:00:33.705Z,4.50
2018-04-18T05:03:04.266Z,5.03
2018-04-18T05:05:33.805Z,4.90
2018-04-18T05:08:03.382Z,5.23
2018-04-18T05:10:33.249Z,5.00
2018-04-18T05:13:08.875Z,5.40
2018-04-18T05:15:38.490Z,4.97
2018-04-18T05:18:08.089Z,5.00
2018-04-18T05:20:37.730Z,5.03
2018-04-18T05:23:07.341Z,4.90
2018-04-18T05:25:36.935Z,4.47
2018-04-18T05:28:06.758Z,4.30
2018-04-18T05:30:36.370Z,4.20
2018-04-18T05:33:05.923Z,4.67
2018-04-18T05:35:35.478Z,4.33
2018-04-18T05:38:05.094Z,4.20
2018-04-18T05:40:34.724Z,4.37
2018-04-18T05:43:04.266Z,4.17
2018-04-18T05:45:33.809Z,5.17
2018-04-18T05:48:03.354Z,4.30
2018-04-18T05:50:32.906Z,5.47
2018-04-18T05:53:02.468Z,3.50
2018-04-18T05:55:32.055Z,4.50
2018-04-18T05:58:01.717Z,4.10
2018-04-18T06:00:31.511Z,3.50
2018-04-18T06:03:01.230Z,4.63
2018-04-18T06:05:30.755Z,4.10
2018-04-18T06:08:00.871Z,3.57
2018-04-18T06:10:30.481Z,5.00
2018-04-18T06:13:00.990Z,4.60
2018-04-18T06:15:30.557Z,4.43
2018-04-18T06:18:00.108Z,3.87
2018-04-18T06:20:29.723Z,4.83
2018-04-18T06:22:59.295Z,3.90
2018-04-18T06:25:28.830Z,4.20
2018-04-18T06:27:59.020Z,4.33
2018-04-18T06:30:43.652Z,5.37
2018-04-18T06:33:13.165Z,6.17
2018-04-18T06:35:42.736Z,4.17
2018-04-18T06:38:12.870Z,6.63
2018-04-18T06:40:42.491Z,6.70
2018-04-18T06:43:12.887Z,6.53
2018-04-18T06:45:42.497Z,4.93
2018-04-18T06:48:12.090Z,5.30
2018-04-18T06:50:41.626Z,4.53
2018-04-18T06:53:11.132Z,5.80
2018-04-18T06:55:40.737Z,5.17
2018-04-18T06:58:10.283Z,4.60
2018-04-18T07:00:39.845Z,4.30
2018-04-18T07:03:09.355Z,4.67
2018-04-18T07:05:38.898Z,4.33
2018-04-18T07:08:08.529Z,5.47
2018-04-18T07:10:38.065Z,5.13
2018-04-18T07:13:07.615Z,5.37
2018-04-18T07:15:37.125Z,6.77
2018-04-18T07:18:06.694Z,5.87
2018-04-18T07:20:36.260Z,4.87
2018-04-18T07:23:05.964Z,9.33
2018-04-18T07:25:35.546Z,5.50
2018-04-18T07:28:05.146Z,5.50
2018-04-18T07:30:34.901Z,6.20
2018-04-18T07:33:04.502Z,4.83
2018-04-18T07:35:34.094Z,5.77
2018-04-18T07:38:03.682Z,5.13
2018-04-18T07:40:33.296Z,4.93
2018-04-18T07:43:02.827Z,6.43
2018-04-18T07:45:32.355Z,5.10
2018-04-18T07:48:01.927Z,7.30
2018-04-18T07:50:31.462Z,9.37
2018-04-18T07:53:01.061Z,9.37
2018-04-18T07:55:30.625Z,6.73
2018-04-18T07:58:00.241Z,5.73
2018-04-18T08:00:29.792Z,5.47
2018-04-18T08:02:59.337Z,7.03
2018-04-18T08:05:28.905Z,5.80
2018-04-18T08:07:58.453Z,7.20
2018-04-18T08:10:28.047Z,6.37
2018-04-18T08:12:57.605Z,6.50
2018-04-18T08:15:27.216Z,7.20
2018-04-18T08:17:56.705Z,9.10
2018-04-18T08:20:26.258Z,7.37
2018-04-18T08:22:55.833Z,6.63
2018-04-18T08:25:25.362Z,7.20
2018-04-18T08:27:57.940Z,8.73
2018-04-18T08:30:27.493Z,10.40
2018-04-18T08:32:57.065Z,8.43
2018-04-18T08:35:26.613Z,8.00
2018-04-18T08:37:56.135Z,7.27
2018-04-18T08:40:25.685Z,7.70
2018-04-18T08:42:55.298Z,8.17
2018-04-18T08:45:24.861Z,6.23
2018-04-18T08:47:54.385Z,7.30
2018-04-18T08:50:23.963Z,6.30
2018-04-18T08:52:53.571Z,7.77
2018-04-18T08:55:23.117Z,7.10
2018-04-18T08:57:52.681Z,7.70
2018-04-18T09:00:22.255Z,6.17
2018-04-18T09:02:51.816Z,6.23
2018-04-18T09:05:21.377Z,5.53
2018-04-18T09:07:51.049Z,5.37
2018-04-18T09:10:20.581Z,5.70
2018-04-18T09:12:50.140Z,5.43
2018-04-18T09:15:19.657Z,5.33
2018-04-18T09:17:49.218Z,5.60
2018-04-18T09:20:18.744Z,6.20
2018-04-18T09:22:48.302Z,7.77
2018-04-18T09:25:17.901Z,7.40
2018-04-18T09:27:47.461Z,8.77
2018-04-18T09:30:17.010Z,8.00
2018-04-18T09:32:46.541Z,6.13
2018-04-18T09:35:16.102Z,8.23
2018-04-18T09:37:45.673Z,7.23
2018-04-18T09:40:15.229Z,6.17
2018-04-18T09:42:44.788Z,8.07
2018-04-18T09:45:14.304Z,8.50
2018-04-18T09:47:43.881Z,9.00
2018-04-18T09:50:13.389Z,8.93
2018-04-18T09:52:42.950Z,7.80
2018-04-18T09:55:12.552Z,6.67
2018-04-18T09:57:42.101Z,8.20
2018-04-18T10:00:11.692Z,8.37
2018-04-18T10:02:41.269Z,9.33
2018-04-18T10:05:10.829Z,9.77
2018-04-18T10:07:40.382Z,6.70
2018-04-18T10:10:09.952Z,6.33
2018-04-18T10:12:39.517Z,5.83
2018-04-18T10:15:09.074Z,4.90
2018-04-18T10:17:38.617Z,5.40
2018-04-18T10:20:08.180Z,4.77
2018-04-18T10:22:37.768Z,5.20
2018-04-18T10:25:07.289Z,4.43
2018-04-18T10:27:36.786Z,4.77
2018-04-18T10:30:06.362Z,4.73
2018-04-18T10:32:35.968Z,4.50
2018-04-18T10:35:05.533Z,4.87
2018-04-18T10:37:35.122Z,4.50
2018-04-18T10:40:05.111Z,4.53
2018-04-18T10:42:34.982Z,4.70
2018-04-18T10:45:04.506Z,4.13
2018-04-18T10:47:34.018Z,4.63
2018-04-18T10:50:03.520Z,4.23
2018-04-18T10:52:33.008Z,4.43
2018-04-18T10:55:02.841Z,4.23
2018-04-18T10:57:32.401Z,3.97
2018-04-18T11:00:01.944Z,4.60
2018-04-18T11:02:31.480Z,5.00
2018-04-18T11:05:01.026Z,4.57
2018-04-18T11:07:30.728Z,3.63
2018-04-18T11:10:00.264Z,3.03
2018-04-18T11:12:29.722Z,3.50
2018-04-18T11:14:59.249Z,2.90
2018-04-18T11:17:28.785Z,3.50
2018-04-18T11:19:58.338Z,2.97
2018-04-18T11:22:27.868Z,3.13
2018-04-18T11:24:57.414Z,2.60
2018-04-18T11:27:26.955Z,3.30
2018-04-18T11:29:56.496Z,2.90
2018-04-18T11:32:26.041Z,3.37
2018-04-18T11:34:55.613Z,2.83
2018-04-18T11:37:25.181Z,3.37
2018-04-18T11:39:54.733Z,2.90
2018-04-18T11:42:24.276Z,2.90
2018-04-18T11:45:00.775Z,2.40
2018-04-18T11:47:30.342Z,2.70
2018-04-18T11:49:59.923Z,2.97
2018-04-18T11:52:29.469Z,2.80
2018-04-18T11:54:59.837Z,2.47
2018-04-18T11:57:35.771Z,2.27
2018-04-18T12:00:05.341Z,2.67
2018-04-18T12:02:34.848Z,2.77
2018-04-18T12:05:04.398Z,2.77
2018-04-18T12:07:33.921Z,2.90
2018-04-18T12:10:03.498Z,3.47
2018-04-18T12:12:33.048Z,3.50
2018-04-18T12:15:02.605Z,3.60
2018-04-18T12:17:32.148Z,3.37
2018-04-18T12:20:09.004Z,3.40
2018-04-18T12:22:38.583Z,2.70
2018-04-18T12:25:08.133Z,3.33
2018-04-18T12:27:37.677Z,3.33
2018-04-18T12:30:08.116Z,3.03
2018-04-18T12:32:37.658Z,3.23
2018-04-18T12:35:07.216Z,3.50
2018-04-18T12:37:36.769Z,4.30
2018-04-18T12:40:06.341Z,4.20
2018-04-18T12:42:36.837Z,4.33
2018-04-18T12:45:06.336Z,4.23
2018-04-18T12:47:35.863Z,4.30
2018-04-18T12:50:12.819Z,3.67
2018-04-18T12:52:42.357Z,3.63
2018-04-18T12:55:11.884Z,3.50
2018-04-18T12:57:41.657Z,3.50
2018-04-18T13:00:11.168Z,3.53
2018-04-18T13:02:40.693Z,4.60
2018-04-18T13:05:10.211Z,3.73
2018-04-18T13:07:40.037Z,3.90
2018-04-18T13:10:09.589Z,4.03
2018-04-18T13:12:39.179Z,4.30
2018-04-18T13:15:08.682Z,4.45
2018-04-18T13:17:38.245Z,3.20
2018-04-18T13:20:07.809Z,3.37
2018-04-18T13:22:37.289Z,2.60
2018-04-18T13:25:06.868Z,3.50
2018-04-18T13:27:36.376Z,3.00
2018-04-18T13:30:05.887Z,2.80
2018-04-18T13:32:35.422Z,2.75
2018-04-18T13:35:04.961Z,2.78
2018-04-18T13:37:34.593Z,2.37
2018-04-18T13:40:04.196Z,2.50
2018-04-18T13:42:33.803Z,2.10
2018-04-18T13:45:03.394Z,2.15
2018-04-18T13:47:33.021Z,2.30
2018-04-18T13:50:02.565Z,2.42
2018-04-18T13:52:32.081Z,2.58
2018-04-18T13:55:01.717Z,2.22
2018-04-18T13:57:31.309Z,1.90
2018-04-18T14:00:00.873Z,2.62
2018-04-18T14:02:30.405Z,2.20
2018-04-18T14:04:59.950Z,2.08
2018-04-18T14:07:29.461Z,2.12
2018-04-18T14:09:59.013Z,2.40
2018-04-18T14:12:28.525Z,2.42
2018-04-18T14:14:58.121Z,1.70
2018-04-18T14:17:27.874Z,1.70
2018-04-18T14:19:57.393Z,1.73
2018-04-18T14:22:26.915Z,1.60
2018-04-18T14:24:56.395Z,1.92
2018-04-18T14:27:25.993Z,1.77
2018-04-18T14:29:55.521Z,1.98
2018-04-18T14:32:25.053Z,1.42
2018-04-18T14:34:54.566Z,1.60
2018-04-18T14:37:24.134Z,1.58
2018-04-18T14:39:53.688Z,1.75
2018-04-18T14:42:23.253Z,1.87
2018-04-18T14:44:52.829Z,1.60
2018-04-18T14:47:22.384Z,2.15
2018-04-18T14:49:51.937Z,2.03
2018-04-18T14:52:21.485Z,1.65
2018-04-18T14:54:51.006Z,1.77
2018-04-18T14:57:20.533Z,1.95
2018-04-18T14:59:50.029Z,1.87
2018-04-18T15:02:19.561Z,2.28
2018-04-18T15:04:49.099Z,2.28
2018-04-18T15:07:26.534Z,1.83
2018-04-18T15:09:56.043Z,2.20
2018-04-18T15:12:25.599Z,2.35
2018-04-18T15:14:55.194Z,2.50
2018-04-18T15:17:24.745Z,2.33
2018-04-18T15:19:54.353Z,1.90
2018-04-18T15:22:23.880Z,2.05
2018-04-18T15:24:53.430Z,2.75
2018-04-18T15:27:23.181Z,2.30
2018-04-18T15:29:53.205Z,2.12
2018-04-18T15:32:22.697Z,2.10
2018-04-18T15:34:52.275Z,1.95
2018-04-18T15:37:21.851Z,2.65
2018-04-18T15:39:51.383Z,2.15
2018-04-18T15:42:20.941Z,2.20
2018-04-18T15:44:50.838Z,2.10
2018-04-18T15:47:20.793Z,2.33
2018-04-18T15:49:50.298Z,1.90
2018-04-18T15:52:19.919Z,2.55
2018-04-18T15:54:49.481Z,2.17
2018-04-18T15:57:19.098Z,2.30
2018-04-18T15:59:48.834Z,2.15
2018-04-18T16:02:18.430Z,2.67
2018-04-18T16:04:47.986Z,2.10
2018-04-18T16:07:17.525Z,2.47
2018-04-18T16:09:47.221Z,1.92
2018-04-18T16:12:16.758Z,2.47
2018-04-18T16:14:46.320Z,2.70
2018-04-18T16:17:15.832Z,3.17
2018-04-18T16:19:45.648Z,2.80
2018-04-18T16:22:16.178Z,3.05
2018-04-18T16:24:45.753Z,2.65
2018-04-18T16:27:15.262Z,2.53
2018-04-18T16:29:44.839Z,2.70
2018-04-18T16:32:14.386Z,2.60
2018-04-18T16:34:44.100Z,2.65
2018-04-18T16:37:13.674Z,2.78
2018-04-18T16:39:43.213Z,2.90
2018-04-18T16:42:12.715Z,2.70
2018-04-18T16:44:42.289Z,2.80
2018-04-18T16:47:12.597Z,2.40
2018-04-18T16:49:42.167Z,3.20
2018-04-18T16:52:11.812Z,3.17
2018-04-18T16:54:41.393Z,3.37
2018-04-18T16:57:12.118Z,2.83
2018-04-18T16:59:41.703Z,3.50
2018-04-18T17:02:11.292Z,3.50
2018-04-18T17:04:40.833Z,3.17
2018-04-18T17:07:10.381Z,3.70
2018-04-18T17:09:39.946Z,3.50
2018-04-18T17:12:09.516Z,3.13
2018-04-18T17:14:39.105Z,3.10
2018-04-18T17:17:08.734Z,2.97
2018-04-18T17:19:38.292Z,3.60
2018-04-18T17:22:07.823Z,3.80
2018-04-18T17:24:37.385Z,3.37
2018-04-18T17:27:06.948Z,3.53
2018-04-18T17:29:36.493Z,3.70
2018-04-18T17:32:05.986Z,3.33
2018-04-18T17:34:35.779Z,3.47
2018-04-18T17:37:05.316Z,3.27
2018-04-18T17:39:34.829Z,3.80
2018-04-18T17:42:04.601Z,3.27
2018-04-18T17:44:34.140Z,3.03
2018-04-18T17:47:03.697Z,3.97
2018-04-18T17:49:33.246Z,3.50
2018-04-18T17:52:02.823Z,3.60
2018-04-18T17:54:32.338Z,3.30
2018-04-18T17:57:01.924Z,3.53
2018-04-18T17:59:31.467Z,3.63
2018-04-18T18:02:01.135Z,3.37
2018-04-18T18:04:30.763Z,3.13
2018-04-18T18:07:00.329Z,3.30
2018-04-18T18:09:29.918Z,3.13
2018-04-18T18:11:59.437Z,3.20
2018-04-18T18:14:29.158Z,3.60
2018-04-18T18:16:58.689Z,3.00
2018-04-18T18:19:28.284Z,3.80
2018-04-18T18:21:58.060Z,3.50
2018-04-18T18:24:27.920Z,3.50
2018-04-18T18:27:04.451Z,3.20
2018-04-18T18:29:34.066Z,3.90
2018-04-18T18:32:03.861Z,3.20
2018-04-18T18:34:33.406Z,3.87
2018-04-18T18:37:02.965Z,4.50
2018-04-18T18:39:32.624Z,3.20
2018-04-18T18:42:02.198Z,3.70
2018-04-18T18:44:31.864Z,3.53
2018-04-18T18:47:01.420Z,3.57
2018-04-18T18:49:31.022Z,4.30
2018-04-18T18:52:00.864Z,3.97
2018-04-18T18:54:30.389Z,4.10
2018-04-18T18:56:59.960Z,4.47
2018-04-18T18:59:29.952Z,3.27
2018-04-18T19:01:59.515Z,4.10
2018-04-18T19:04:36.808Z,4.83
2018-04-18T19:07:06.370Z,3.50
2018-04-18T19:09:36.177Z,3.97
2018-04-18T19:12:05.757Z,3.70
2018-04-18T19:14:35.406Z,3.73
2018-04-18T19:17:04.919Z,4.70
2018-04-18T19:19:34.439Z,4.00
2018-04-18T19:22:03.990Z,4.80
2018-04-18T19:24:33.513Z,3.70
2018-04-18T19:27:03.050Z,4.17
2018-04-18T19:29:32.746Z,4.20
2018-04-18T19:32:02.379Z,3.23
2018-04-18T19:34:31.990Z,3.37
2018-04-18T19:37:01.568Z,3.80
2018-04-18T19:39:31.198Z,3.87
2018-04-18T19:42:02.358Z,4.00
2018-04-18T19:44:32.229Z,3.10
2018-04-18T19:47:02.684Z,3.50
2018-04-18T19:52:06.351Z,3.80
2018-04-18T19:54:35.974Z,3.60
2018-04-18T19:57:05.555Z,4.17
2018-04-18T19:59:35.187Z,3.97
2018-04-18T20:02:11.003Z,3.80
2018-04-18T20:04:40.812Z,5.63
2018-04-18T20:07:17.634Z,4.17
2018-04-18T20:09:47.605Z,3.47
2018-04-18T20:12:17.315Z,3.90
2018-04-18T20:14:46.962Z,4.87
2018-04-18T20:17:17.564Z,4.30
2018-04-18T20:19:47.413Z,5.60
2018-04-18T20:22:16.974Z,4.40
2018-04-18T20:24:46.656Z,4.83
2018-04-18T20:27:16.764Z,4.37
2018-04-18T20:32:21.288Z,3.83
2018-04-18T20:34:50.872Z,4.83
2018-04-18T20:37:20.464Z,5.20
2018-04-18T20:39:57.747Z,4.60
2018-04-18T20:42:27.326Z,4.63
2018-04-18T20:44:56.931Z,4.10
2018-04-18T20:47:26.536Z,3.50
2018-04-18T20:49:56.122Z,3.67
2018-04-18T20:52:26.017Z,4.03
2018-04-18T20:54:55.705Z,3.50
2018-04-18T20:57:25.392Z,4.50
2018-04-18T21:00:01.082Z,3.37
2018-04-18T21:02:30.653Z,4.20
2018-04-18T21:05:00.315Z,3.80
2018-04-18T21:07:29.886Z,3.10
2018-04-18T21:09:59.476Z,3.53
2018-04-18T21:12:29.726Z,3.90
2018-04-18T21:14:59.358Z,3.63
2018-04-18T21:17:28.916Z,3.27
2018-04-18T21:19:58.983Z,3.00
2018-04-18T21:22:28.828Z,3.27
2018-04-18T21:24:58.591Z,3.33
2018-04-18T21:27:28.141Z,3.57
2018-04-18T21:29:57.664Z,3.63
2018-04-18T21:32:27.330Z,3.47
2018-04-18T21:35:00.005Z,4.23
2018-04-18T21:37:30.029Z,3.60
2018-04-18T21:39:59.829Z,4.27
2018-04-18T21:42:29.664Z,3.53
2018-04-18T21:44:59.221Z,5.03
2018-04-18T21:47:28.799Z,4.20
2018-04-18T21:49:58.675Z,4.70
2018-04-18T21:52:28.398Z,5.27
2018-04-18T21:54:58.296Z,5.30
2018-04-18T21:57:28.143Z,4.80
2018-04-18T21:59:57.773Z,4.50
2018-04-18T22:02:27.811Z,4.10
2018-04-18T22:04:57.662Z,5.00
2018-04-18T22:07:27.261Z,4.90
2018-04-18T22:09:57.251Z,4.53
2018-04-18T22:12:26.868Z,4.43
2018-04-18T22:14:57.804Z,5.17
2018-04-18T22:17:27.572Z,5.43
2018-04-18T22:19:57.102Z,4.03
2018-04-18T22:22:26.798Z,4.03
2018-04-18T22:24:56.558Z,4.33
2018-04-18T22:27:26.613Z,4.27
2018-04-18T22:29:56.188Z,4.80
2018-04-18T22:32:25.797Z,5.10
2018-04-18T22:34:55.365Z,5.27
2018-04-18T22:37:24.944Z,4.57
2018-04-18T22:39:54.509Z,4.87
2018-04-18T22:42:24.103Z,5.10
2018-04-18T22:44:53.627Z,5.37
2018-04-18T22:47:23.217Z,5.00
2018-04-18T22:49:54.831Z,5.07
2018-04-18T22:52:24.474Z,4.73
2018-04-18T22:54:54.079Z,5.00
2018-04-18T22:57:23.699Z,4.60
2018-04-18T22:59:53.250Z,5.40
2018-04-18T23:02:30.055Z,5.10
2018-04-18T23:04:59.582Z,5.50
2018-04-18T23:07:29.127Z,4.57
2018-04-18T23:09:58.654Z,4.90
2018-04-18T23:12:28.254Z,5.80
2018-04-18T23:14:57.821Z,6.20
2018-04-18T23:17:27.373Z,6.13
2018-04-18T23:19:57.206Z,6.80
2018-04-18T23:22:32.650Z,7.90
2018-04-18T23:25:02.299Z,7.50
2018-04-18T23:27:31.921Z,8.30
2018-04-18T23:30:01.591Z,6.97
2018-04-18T23:32:37.336Z,7.00
2018-04-18T23:35:07.240Z,6.90
2018-04-18T23:37:37.053Z,6.23
2018-04-18T23:40:06.601Z,7.10
2018-04-18T23:42:36.183Z,6.73
2018-04-18T23:45:05.815Z,6.90
2018-04-18T23:50:20.444Z,6.47
2018-04-18T23:52:50.086Z,5.93
2018-04-18T23:55:19.695Z,5.70
2018-04-18T23:57:49.254Z,5.47
